Terminal Aerodrome Forecast
Issued by NWS

Home | Current Version | Previous Version | Text Only | Print | Product List | Glossary On
Versions: 1 2 3 4 5 6 7 8 9 10 11 12 13
000
FTUS43 KFGF 221128
TAFTVF
TAF
KTVF 221128Z 2212/2312 24012KT P6SM SKC
     FM221500 23013G23KT P6SM SKC
     FM222000 21014G24KT P6SM SCT060 BKN150
     FM230100 23013KT P6SM VCSH SCT020 BKN030=

USA.gov is the U.S. government's official web portal to all federal, state and local government web resources and services.